This is the latest recevied weather packets stored in our database for station/object OM6ABF-11. If no packets are shown the sender has not sent any weather packets the latest 10 day(s).
| Time | Temp. | Humidity | Pressure | Rain* | Wind** | Luminosity | Snow |
|---|---|---|---|---|---|---|---|
| 1778117722 | 13.33° C | 68% | 1011.4 hPa | - | - | - | - |
| 1778116824 | 12.78° C | 69% | 1011.3 hPa | - | - | - | - |
| 1778115925 | 13.33° C | 68% | 1011.4 hPa | - | - | - | - |
| 1778115026 | 13.33° C | 67% | 1011.3 hPa | - | - | - | - |
| 1778114127 | 13.33° C | 67% | 1011.3 hPa | - | - | - | - |
| 1778113228 | 13.89° C | 66% | 1011.2 hPa | - | - | - | - |
| 1778112328 | 13.89° C | 67% | 1011.3 hPa | - | - | - | - |
| 1778111429 | 13.89° C | 68% | 1011.2 hPa | - | - | - | - |
| 1778110529 | 13.89° C | 67% | 1011.3 hPa | - | - | - | - |
| 1778109630 | 14.44° C | 65% | 1011.3 hPa | - | - | - | - |
| 1778108730 | 15° C | 62% | 1011 hPa | - | - | - | - |
| 1778107831 | 15.56° C | 61% | 1011 hPa | - | - | - | - |
| 1778106931 | 15.56° C | 60% | 1011 hPa | - | - | - | - |
| 1778106033 | 15.56° C | 60% | 1011.1 hPa | - | - | - | - |
| 1778105135 | 15.56° C | 59% | 1011.1 hPa | - | - | - | - |
| 1778104237 | 16.11° C | 58% | 1011 hPa | - | - | - | - |
| 1778103338 | 16.67° C | 57% | 1011 hPa | - | - | - | - |
| 1778102440 | 16.67° C | 56% | 1010.9 hPa | - | - | - | - |
| 1778101541 | 16.67° C | 55% | 1010.9 hPa | - | - | - | - |
| 1778100641 | 16.67° C | 56% | 1010.7 hPa | - | - | - | - |
| 1778099741 | 16.11° C | 58% | 1010.4 hPa | - | - | - | - |
| 1778098842 | 16.67° C | 56% | 1010.4 hPa | - | - | - | - |
| 1778097943 | 16.67° C | 55% | 1010.7 hPa | - | - | - | - |
| 1778097043 | 16.67° C | 55% | 1010.8 hPa | - | - | - | - |
| 1778096143 | 16.11° C | 56% | 1010.4 hPa | - | - | - | - |
* Rain since midnight (hover to see other rain measurements)
** Current wind speed in m/s (hover to see current wind gust speed)